createdAt,value
2018-03-25T06:29:23.135Z,42.54
2018-03-25T06:31:50.783Z,42.31
2018-03-25T06:34:17.285Z,41.36
2018-03-25T06:36:44.178Z,40.97
2018-03-25T06:39:11.167Z,42.00
2018-03-25T06:41:37.455Z,42.16
2018-03-25T06:44:04.530Z,41.28
2018-03-25T06:46:31.091Z,40.67
2018-03-25T06:48:57.376Z,40.04
2018-03-25T06:51:23.858Z,39.40
2018-03-25T06:53:50.210Z,39.04
2018-03-25T06:56:17.194Z,38.62
2018-03-25T06:58:43.972Z,38.36
2018-03-25T07:01:10.262Z,37.94
2018-03-25T07:03:36.739Z,37.51
2018-03-25T07:06:03.273Z,37.20
2018-03-25T07:08:29.814Z,37.20
2018-03-25T07:10:56.638Z,36.77
2018-03-25T07:13:23.088Z,36.15
2018-03-25T07:15:49.439Z,35.55
2018-03-25T07:18:15.701Z,35.18
2018-03-25T07:20:43.203Z,35.19
2018-03-25T07:23:09.741Z,35.28
2018-03-25T07:25:36.573Z,35.13
2018-03-25T07:28:02.858Z,34.96
2018-03-25T07:30:29.951Z,34.87
2018-03-25T07:32:56.499Z,34.60
2018-03-25T07:35:23.030Z,35.01
2018-03-25T07:37:49.378Z,35.17
2018-03-25T07:40:16.331Z,35.20
2018-03-25T07:42:43.437Z,35.44
2018-03-25T08:16:33.839Z,30.76
2018-03-25T08:19:08.666Z,30.13
2018-03-25T08:21:41.681Z,29.80
2018-03-25T08:24:16.858Z,30.23
2018-03-25T08:26:46.475Z,29.45
2018-03-25T08:29:21.256Z,28.73
2018-03-25T08:31:55.994Z,28.33
2018-03-25T08:34:23.171Z,28.16
2018-03-25T08:36:51.541Z,28.10
2018-03-25T08:39:21.280Z,27.73
2018-03-25T08:41:53.601Z,27.14
2018-03-25T08:44:24.258Z,26.57
2018-03-25T08:49:27.988Z,26.08
2018-03-25T08:51:59.828Z,25.93
2018-03-25T08:54:32.365Z,25.92
2018-03-25T08:57:04.253Z,25.44
2018-03-25T08:59:41.668Z,25.46
2018-03-25T09:02:14.864Z,25.67
2018-03-25T09:04:45.057Z,26.04
2018-03-25T09:07:20.080Z,25.96
2018-03-25T09:09:47.669Z,25.94
2018-03-25T09:12:14.565Z,26.32
2018-03-25T09:14:43.735Z,27.21
2018-03-25T09:17:14.627Z,27.35
2018-03-25T09:19:45.526Z,26.41
